< < Back
Terminal Aerodrome Forecast


Current Version              Previous Versions:   1  2  3  4  5  6  7  8  9  

Terminal Aerodrome Forecast

779
FTUS42 KFFC 221900 AAA
TAFAHN
TAF AMD
KAHN 221949Z 2220/2318 33008KT P6SM SCT050
     FM222100 33008KT P6SM SCT050
     FM230100 33004KT P6SM FEW070 SCT250
     FM231500 34006KT P6SM SCT040=

Latest METAR

586
SAUS70 KWBC 230700
MTRAHN
METAR KAHN 230651Z AUTO 00000KT 10SM CLR 24/21 A2999 RMK AO2 SLP147
T02390206


USA.gov is the U.S. government's official web portal to all federal, state and local government web resources and services.